sensor_id;sensor_type;location;lat;lon;timestamp;P1;durP1;ratioP1;P2;durP2;ratioP2
1475;SDS011;730;48.870;12.542;2023-12-20T00:01:42;12.15;;;11.05;;
1475;SDS011;730;48.870;12.542;2023-12-20T00:04:08;12.95;;;11.63;;
1475;SDS011;730;48.870;12.542;2023-12-20T00:06:34;11.93;;;10.73;;
1475;SDS011;730;48.870;12.542;2023-12-20T00:09:00;13.13;;;10.88;;
1475;SDS011;730;48.870;12.542;2023-12-20T00:11:26;12.02;;;10.52;;
1475;SDS011;730;48.870;12.542;2023-12-20T00:13:52;11.93;;;10.73;;
1475;SDS011;730;48.870;12.542;2023-12-20T00:16:18;12.20;;;10.90;;
1475;SDS011;730;48.870;12.542;2023-12-20T00:18:44;13.57;;;11.48;;
1475;SDS011;730;48.870;12.542;2023-12-20T00:21:11;11.45;;;10.35;;
1475;SDS011;730;48.870;12.542;2023-12-20T00:23:37;12.32;;;10.57;;
1475;SDS011;730;48.870;12.542;2023-12-20T00:26:03;11.30;;;10.20;;
1475;SDS011;730;48.870;12.542;2023-12-20T00:28:29;12.35;;;11.25;;
1475;SDS011;730;48.870;12.542;2023-12-20T00:30:55;11.27;;;10.20;;
1475;SDS011;730;48.870;12.542;2023-12-20T00:33:21;10.93;;;9.90;;
1475;SDS011;730;48.870;12.542;2023-12-20T00:35:47;11.85;;;10.43;;
1475;SDS011;730;48.870;12.542;2023-12-20T00:38:14;11.98;;;10.85;;
1475;SDS011;730;48.870;12.542;2023-12-20T00:40:40;10.18;;;9.20;;
1475;SDS011;730;48.870;12.542;2023-12-20T00:43:10;11.52;;;10.27;;
1475;SDS011;730;48.870;12.542;2023-12-20T00:45:36;10.27;;;9.27;;
1475;SDS011;730;48.870;12.542;2023-12-20T00:48:02;11.18;;;10.07;;
1475;SDS011;730;48.870;12.542;2023-12-20T00:50:28;10.27;;;9.27;;
1475;SDS011;730;48.870;12.542;2023-12-20T00:52:54;10.70;;;8.40;;
1475;SDS011;730;48.870;12.542;2023-12-20T00:55:20;10.18;;;9.15;;
1475;SDS011;730;48.870;12.542;2023-12-20T00:57:46;9.35;;;8.45;;
1475;SDS011;730;48.870;12.542;2023-12-20T01:00:13;11.73;;;8.70;;
1475;SDS011;730;48.870;12.542;2023-12-20T01:02:39;10.57;;;9.60;;
1475;SDS011;730;48.870;12.542;2023-12-20T01:05:05;10.13;;;9.23;;
1475;SDS011;730;48.870;12.542;2023-12-20T01:07:32;9.88;;;8.88;;
1475;SDS011;730;48.870;12.542;2023-12-20T01:09:59;8.98;;;8.15;;
1475;SDS011;730;48.870;12.542;2023-12-20T01:12:25;10.27;;;9.27;;
1475;SDS011;730;48.870;12.542;2023-12-20T01:14:51;9.57;;;8.65;;
1475;SDS011;730;48.870;12.542;2023-12-20T01:17:17;10.25;;;9.15;;
1475;SDS011;730;48.870;12.542;2023-12-20T01:19:43;10.32;;;9.32;;
1475;SDS011;730;48.870;12.542;2023-12-20T01:22:09;10.32;;;8.55;;
1475;SDS011;730;48.870;12.542;2023-12-20T01:24:35;10.82;;;9.60;;
1475;SDS011;730;48.870;12.542;2023-12-20T01:27:01;9.30;;;8.40;;
1475;SDS011;730;48.870;12.542;2023-12-20T01:29:27;9.93;;;8.93;;
1475;SDS011;730;48.870;12.542;2023-12-20T01:31:53;10.35;;;9.35;;
1475;SDS011;730;48.870;12.542;2023-12-20T01:34:19;12.13;;;8.95;;
1475;SDS011;730;48.870;12.542;2023-12-20T01:36:46;10.15;;;9.15;;
1475;SDS011;730;48.870;12.542;2023-12-20T01:39:12;9.57;;;8.43;;
1475;SDS011;730;48.870;12.542;2023-12-20T01:41:38;10.40;;;9.40;;
1475;SDS011;730;48.870;12.542;2023-12-20T01:44:04;9.73;;;8.70;;
1475;SDS011;730;48.870;12.542;2023-12-20T01:46:30;11.02;;;9.57;;
1475;SDS011;730;48.870;12.542;2023-12-20T01:48:56;11.10;;;10.00;;
1475;SDS011;730;48.870;12.542;2023-12-20T01:51:22;12.02;;;10.13;;
1475;SDS011;730;48.870;12.542;2023-12-20T01:53:49;11.48;;;10.32;;
1475;SDS011;730;48.870;12.542;2023-12-20T01:56:15;12.90;;;11.68;;
1475;SDS011;730;48.870;12.542;2023-12-20T01:58:45;12.13;;;11.02;;
1475;SDS011;730;48.870;12.542;2023-12-20T02:01:12;13.27;;;11.85;;
1475;SDS011;730;48.870;12.542;2023-12-20T02:03:40;12.35;;;11.05;;
1475;SDS011;730;48.870;12.542;2023-12-20T02:06:07;12.02;;;10.82;;
1475;SDS011;730;48.870;12.542;2023-12-20T02:08:34;12.23;;;11.13;;
1475;SDS011;730;48.870;12.542;2023-12-20T02:11:01;14.30;;;12.90;;
1475;SDS011;730;48.870;12.542;2023-12-20T02:13:28;13.10;;;11.93;;
1475;SDS011;730;48.870;12.542;2023-12-20T02:15:57;14.88;;;13.38;;
1475;SDS011;730;48.870;12.542;2023-12-20T02:18:23;14.52;;;13.02;;
1475;SDS011;730;48.870;12.542;2023-12-20T02:20:49;16.08;;;13.07;;
1475;SDS011;730;48.870;12.542;2023-12-20T02:23:15;14.38;;;12.88;;
1475;SDS011;730;48.870;12.542;2023-12-20T02:25:41;14.45;;;13.02;;
1475;SDS011;730;48.870;12.542;2023-12-20T02:28:07;15.07;;;13.35;;
1475;SDS011;730;48.870;12.542;2023-12-20T02:30:33;14.23;;;12.88;;
1475;SDS011;730;48.870;12.542;2023-12-20T02:33:00;15.45;;;13.82;;
1475;SDS011;730;48.870;12.542;2023-12-20T02:35:28;15.10;;;13.13;;
1475;SDS011;730;48.870;12.542;2023-12-20T02:37:54;14.63;;;12.85;;
1475;SDS011;730;48.870;12.542;2023-12-20T02:40:20;16.35;;;13.25;;
1475;SDS011;730;48.870;12.542;2023-12-20T02:42:46;15.13;;;13.63;;
1475;SDS011;730;48.870;12.542;2023-12-20T02:45:12;15.25;;;13.75;;
1475;SDS011;730;48.870;12.542;2023-12-20T02:47:38;15.43;;;13.93;;
1475;SDS011;730;48.870;12.542;2023-12-20T02:50:04;13.55;;;12.35;;
1475;SDS011;730;48.870;12.542;2023-12-20T02:52:30;13.68;;;12.27;;
1475;SDS011;730;48.870;12.542;2023-12-20T02:54:56;12.95;;;11.75;;
1475;SDS011;730;48.870;12.542;2023-12-20T02:57:22;15.00;;;13.38;;
1475;SDS011;730;48.870;12.542;2023-12-20T02:59:48;15.63;;;14.07;;
1475;SDS011;730;48.870;12.542;2023-12-20T03:02:14;15.30;;;13.70;;
1475;SDS011;730;48.870;12.542;2023-12-20T03:04:42;13.63;;;12.10;;
1475;SDS011;730;48.870;12.542;2023-12-20T03:07:08;14.50;;;13.10;;
1475;SDS011;730;48.870;12.542;2023-12-20T03:09:34;13.27;;;12.00;;
1475;SDS011;730;48.870;12.542;2023-12-20T03:12:00;13.00;;;11.80;;
1475;SDS011;730;48.870;12.542;2023-12-20T03:14:26;13.77;;;12.30;;
1475;SDS011;730;48.870;12.542;2023-12-20T03:16:52;13.13;;;11.82;;
1475;SDS011;730;48.870;12.542;2023-12-20T03:19:18;14.50;;;12.93;;
1475;SDS011;730;48.870;12.542;2023-12-20T03:21:44;14.27;;;12.65;;
1475;SDS011;730;48.870;12.542;2023-12-20T03:24:11;13.20;;;11.90;;
1475;SDS011;730;48.870;12.542;2023-12-20T03:26:37;13.93;;;12.52;;
1475;SDS011;730;48.870;12.542;2023-12-20T03:29:03;14.20;;;12.77;;
1475;SDS011;730;48.870;12.542;2023-12-20T03:31:29;13.25;;;12.05;;
1475;SDS011;730;48.870;12.542;2023-12-20T03:33:55;13.35;;;12.15;;
1475;SDS011;730;48.870;12.542;2023-12-20T03:36:21;12.88;;;11.63;;
1475;SDS011;730;48.870;12.542;2023-12-20T03:38:47;16.05;;;12.20;;
1475;SDS011;730;48.870;12.542;2023-12-20T03:41:13;14.50;;;12.90;;
1475;SDS011;730;48.870;12.542;2023-12-20T03:43:39;13.50;;;12.20;;
1475;SDS011;730;48.870;12.542;2023-12-20T03:46:06;13.63;;;12.07;;
1475;SDS011;730;48.870;12.542;2023-12-20T03:48:34;14.20;;;11.98;;
1475;SDS011;730;48.870;12.542;2023-12-20T03:51:00;12.75;;;11.45;;
1475;SDS011;730;48.870;12.542;2023-12-20T03:53:26;12.60;;;11.50;;
1475;SDS011;730;48.870;12.542;2023-12-20T03:55:52;14.05;;;12.80;;
1475;SDS011;730;48.870;12.542;2023-12-20T03:58:18;14.18;;;12.88;;
1475;SDS011;730;48.870;12.542;2023-12-20T04:00:44;15.18;;;13.85;;
1475;SDS011;730;48.870;12.542;2023-12-20T04:03:10;16.20;;;14.70;;
1475;SDS011;730;48.870;12.542;2023-12-20T04:05:39;16.08;;;14.57;;
1475;SDS011;730;48.870;12.542;2023-12-20T04:08:06;17.88;;;16.17;;
1475;SDS011;730;48.870;12.542;2023-12-20T04:10:33;17.45;;;15.65;;
1475;SDS011;730;48.870;12.542;2023-12-20T04:12:59;18.23;;;16.45;;
1475;SDS011;730;48.870;12.542;2023-12-20T04:15:25;17.40;;;15.60;;
1475;SDS011;730;48.870;12.542;2023-12-20T04:17:51;16.38;;;14.68;;
1475;SDS011;730;48.870;12.542;2023-12-20T04:20:17;15.32;;;13.80;;
1475;SDS011;730;48.870;12.542;2023-12-20T04:22:44;16.40;;;14.60;;
1475;SDS011;730;48.870;12.542;2023-12-20T04:25:10;16.52;;;14.93;;
1475;SDS011;730;48.870;12.542;2023-12-20T04:27:36;19.75;;;17.30;;
1475;SDS011;730;48.870;12.542;2023-12-20T04:30:02;15.77;;;14.32;;
1475;SDS011;730;48.870;12.542;2023-12-20T04:32:29;16.42;;;14.90;;
1475;SDS011;730;48.870;12.542;2023-12-20T04:34:55;14.23;;;12.90;;
1475;SDS011;730;48.870;12.542;2023-12-20T04:37:21;15.63;;;14.02;;
1475;SDS011;730;48.870;12.542;2023-12-20T04:39:47;18.50;;;13.55;;
1475;SDS011;730;48.870;12.542;2023-12-20T04:42:13;16.20;;;14.65;;
1475;SDS011;730;48.870;12.542;2023-12-20T04:44:39;16.50;;;14.70;;
1475;SDS011;730;48.870;12.542;2023-12-20T04:47:05;14.55;;;13.02;;
1475;SDS011;730;48.870;12.542;2023-12-20T04:49:31;15.73;;;14.18;;
1475;SDS011;730;48.870;12.542;2023-12-20T04:51:57;15.02;;;13.63;;
1475;SDS011;730;48.870;12.542;2023-12-20T04:54:23;14.77;;;13.27;;
1475;SDS011;730;48.870;12.542;2023-12-20T04:56:49;16.05;;;14.32;;
1475;SDS011;730;48.870;12.542;2023-12-20T04:59:15;15.65;;;14.02;;
1475;SDS011;730;48.870;12.542;2023-12-20T05:01:42;16.25;;;14.55;;
1475;SDS011;730;48.870;12.542;2023-12-20T05:04:08;28.70;;;21.73;;
1475;SDS011;730;48.870;12.542;2023-12-20T05:06:34;50.60;;;27.35;;
1475;SDS011;730;48.870;12.542;2023-12-20T05:09:00;29.15;;;18.17;;
1475;SDS011;730;48.870;12.542;2023-12-20T05:11:26;27.42;;;16.65;;
1475;SDS011;730;48.870;12.542;2023-12-20T05:13:52;22.48;;;17.88;;
1475;SDS011;730;48.870;12.542;2023-12-20T05:16:18;19.38;;;12.88;;
1475;SDS011;730;48.870;12.542;2023-12-20T05:18:44;11.45;;;10.27;;
1475;SDS011;730;48.870;12.542;2023-12-20T05:21:11;11.77;;;8.32;;
1475;SDS011;730;48.870;12.542;2023-12-20T05:23:37;9.40;;;8.48;;
1475;SDS011;730;48.870;12.542;2023-12-20T05:26:04;7.15;;;6.45;;
1475;SDS011;730;48.870;12.542;2023-12-20T05:28:31;7.63;;;6.82;;
1475;SDS011;730;48.870;12.542;2023-12-20T05:30:57;8.05;;;7.20;;
1475;SDS011;730;48.870;12.542;2023-12-20T05:33:24;8.77;;;6.15;;
1475;SDS011;730;48.870;12.542;2023-12-20T05:35:50;6.95;;;6.07;;
1475;SDS011;730;48.870;12.542;2023-12-20T05:38:16;6.32;;;5.28;;
1475;SDS011;730;48.870;12.542;2023-12-20T05:40:42;5.97;;;5.47;;
1475;SDS011;730;48.870;12.542;2023-12-20T05:43:08;6.75;;;5.60;;
1475;SDS011;730;48.870;12.542;2023-12-20T05:45:34;5.95;;;5.35;;
1475;SDS011;730;48.870;12.542;2023-12-20T05:48:00;6.15;;;4.95;;
1475;SDS011;730;48.870;12.542;2023-12-20T05:50:26;6.03;;;5.47;;
1475;SDS011;730;48.870;12.542;2023-12-20T05:52:52;6.30;;;5.70;;
1475;SDS011;730;48.870;12.542;2023-12-20T05:55:19;7.90;;;5.85;;
1475;SDS011;730;48.870;12.542;2023-12-20T05:57:45;6.28;;;5.68;;
1475;SDS011;730;48.870;12.542;2023-12-20T06:00:11;5.33;;;4.83;;
1475;SDS011;730;48.870;12.542;2023-12-20T06:02:37;5.38;;;4.82;;
1475;SDS011;730;48.870;12.542;2023-12-20T06:05:04;5.80;;;5.20;;
1475;SDS011;730;48.870;12.542;2023-12-20T06:07:31;7.72;;;5.57;;
1475;SDS011;730;48.870;12.542;2023-12-20T06:09:57;5.18;;;4.68;;
1475;SDS011;730;48.870;12.542;2023-12-20T06:12:23;4.75;;;4.25;;
1475;SDS011;730;48.870;12.542;2023-12-20T06:14:52;7.47;;;5.13;;
1475;SDS011;730;48.870;12.542;2023-12-20T06:17:18;6.85;;;4.75;;
1475;SDS011;730;48.870;12.542;2023-12-20T06:19:44;5.05;;;4.50;;
1475;SDS011;730;48.870;12.542;2023-12-20T06:22:14;7.25;;;4.63;;
1475;SDS011;730;48.870;12.542;2023-12-20T06:24:40;4.18;;;3.60;;
1475;SDS011;730;48.870;12.542;2023-12-20T06:27:06;4.45;;;4.05;;
1475;SDS011;730;48.870;12.542;2023-12-20T06:29:32;4.90;;;4.40;;
1475;SDS011;730;48.870;12.542;2023-12-20T06:32:00;6.45;;;4.90;;
1475;SDS011;730;48.870;12.542;2023-12-20T06:34:26;4.68;;;4.25;;
1475;SDS011;730;48.870;12.542;2023-12-20T06:36:52;4.70;;;3.85;;
1475;SDS011;730;48.870;12.542;2023-12-20T06:39:18;4.35;;;3.80;;
1475;SDS011;730;48.870;12.542;2023-12-20T06:41:44;4.50;;;4.10;;
1475;SDS011;730;48.870;12.542;2023-12-20T06:44:10;4.40;;;4.00;;
1475;SDS011;730;48.870;12.542;2023-12-20T06:46:36;4.88;;;4.10;;
1475;SDS011;730;48.870;12.542;2023-12-20T06:49:02;4.70;;;4.07;;
1475;SDS011;730;48.870;12.542;2023-12-20T06:51:28;5.00;;;4.15;;
1475;SDS011;730;48.870;12.542;2023-12-20T06:53:56;7.78;;;4.10;;
1475;SDS011;730;48.870;12.542;2023-12-20T06:56:22;6.38;;;4.00;;
1475;SDS011;730;48.870;12.542;2023-12-20T06:58:48;5.07;;;4.68;;
1475;SDS011;730;48.870;12.542;2023-12-20T07:01:14;5.30;;;4.80;;
1475;SDS011;730;48.870;12.542;2023-12-20T07:03:41;6.80;;;6.20;;
1475;SDS011;730;48.870;12.542;2023-12-20T07:06:07;5.32;;;4.35;;
1475;SDS011;730;48.870;12.542;2023-12-20T07:08:34;5.35;;;4.85;;
1475;SDS011;730;48.870;12.542;2023-12-20T07:11:00;5.13;;;4.63;;
1475;SDS011;730;48.870;12.542;2023-12-20T07:13:26;5.20;;;4.40;;
1475;SDS011;730;48.870;12.542;2023-12-20T07:15:52;4.97;;;4.47;;
1475;SDS011;730;48.870;12.542;2023-12-20T07:18:18;5.05;;;4.60;;
1475;SDS011;730;48.870;12.542;2023-12-20T07:20:44;5.15;;;4.55;;
1475;SDS011;730;48.870;12.542;2023-12-20T07:23:10;5.15;;;4.65;;
1475;SDS011;730;48.870;12.542;2023-12-20T07:25:36;4.80;;;4.38;;
1475;SDS011;730;48.870;12.542;2023-12-20T07:28:02;5.85;;;4.72;;
1475;SDS011;730;48.870;12.542;2023-12-20T07:30:29;10.15;;;6.88;;
1475;SDS011;730;48.870;12.542;2023-12-20T07:32:55;5.57;;;5.07;;
1475;SDS011;730;48.870;12.542;2023-12-20T07:35:23;5.35;;;4.90;;
1475;SDS011;730;48.870;12.542;2023-12-20T07:37:49;4.82;;;4.22;;
1475;SDS011;730;48.870;12.542;2023-12-20T07:40:15;5.80;;;4.72;;
1475;SDS011;730;48.870;12.542;2023-12-20T07:42:42;6.03;;;5.53;;
1475;SDS011;730;48.870;12.542;2023-12-20T07:45:08;6.53;;;5.85;;
1475;SDS011;730;48.870;12.542;2023-12-20T07:47:36;8.15;;;6.05;;
1475;SDS011;730;48.870;12.542;2023-12-20T07:50:02;5.30;;;4.80;;
1475;SDS011;730;48.870;12.542;2023-12-20T07:52:29;5.53;;;5.00;;
1475;SDS011;730;48.870;12.542;2023-12-20T07:54:55;4.82;;;4.43;;
1475;SDS011;730;48.870;12.542;2023-12-20T07:57:21;4.97;;;4.50;;
1475;SDS011;730;48.870;12.542;2023-12-20T07:59:47;4.85;;;4.45;;
1475;SDS011;730;48.870;12.542;2023-12-20T08:02:13;4.75;;;4.10;;
1475;SDS011;730;48.870;12.542;2023-12-20T08:04:39;4.20;;;3.10;;
1475;SDS011;730;48.870;12.542;2023-12-20T08:07:06;4.32;;;3.90;;
1475;SDS011;730;48.870;12.542;2023-12-20T08:09:32;4.80;;;4.07;;
1475;SDS011;730;48.870;12.542;2023-12-20T08:11:59;5.38;;;3.97;;
1475;SDS011;730;48.870;12.542;2023-12-20T08:14:25;4.25;;;3.85;;
1475;SDS011;730;48.870;12.542;2023-12-20T08:16:51;4.30;;;3.90;;
1475;SDS011;730;48.870;12.542;2023-12-20T08:19:17;3.80;;;3.33;;
1475;SDS011;730;48.870;12.542;2023-12-20T08:21:43;3.65;;;3.33;;
1475;SDS011;730;48.870;12.542;2023-12-20T08:24:09;3.85;;;3.05;;
1475;SDS011;730;48.870;12.542;2023-12-20T08:26:35;7.40;;;2.90;;
1475;SDS011;730;48.870;12.542;2023-12-20T08:29:01;4.10;;;3.30;;
1475;SDS011;730;48.870;12.542;2023-12-20T08:31:28;3.65;;;3.20;;
1475;SDS011;730;48.870;12.542;2023-12-20T08:33:54;3.33;;;3.03;;
1475;SDS011;730;48.870;12.542;2023-12-20T08:36:20;3.03;;;2.72;;
1475;SDS011;730;48.870;12.542;2023-12-20T08:38:48;3.60;;;3.30;;
1475;SDS011;730;48.870;12.542;2023-12-20T08:41:15;3.33;;;3.03;;
1475;SDS011;730;48.870;12.542;2023-12-20T08:43:42;3.80;;;2.83;;
1475;SDS011;730;48.870;12.542;2023-12-20T08:46:08;4.13;;;3.25;;
1475;SDS011;730;48.870;12.542;2023-12-20T08:48:38;4.30;;;3.65;;
1475;SDS011;730;48.870;12.542;2023-12-20T08:51:04;3.38;;;3.08;;
1475;SDS011;730;48.870;12.542;2023-12-20T08:53:33;4.13;;;3.35;;
1475;SDS011;730;48.870;12.542;2023-12-20T08:56:04;3.90;;;3.42;;
1475;SDS011;730;48.870;12.542;2023-12-20T08:58:30;3.85;;;3.45;;
1475;SDS011;730;48.870;12.542;2023-12-20T09:00:56;3.10;;;2.80;;
1475;SDS011;730;48.870;12.542;2023-12-20T09:03:23;3.05;;;2.60;;
1475;SDS011;730;48.870;12.542;2023-12-20T09:05:49;2.75;;;2.55;;
1475;SDS011;730;48.870;12.542;2023-12-20T09:08:15;2.65;;;2.45;;
1475;SDS011;730;48.870;12.542;2023-12-20T09:10:41;2.83;;;2.55;;
1475;SDS011;730;48.870;12.542;2023-12-20T09:13:07;2.08;;;1.88;;
1475;SDS011;730;48.870;12.542;2023-12-20T09:15:33;2.28;;;2.08;;
1475;SDS011;730;48.870;12.542;2023-12-20T09:17:59;2.63;;;2.10;;
1475;SDS011;730;48.870;12.542;2023-12-20T09:20:26;2.28;;;1.88;;
1475;SDS011;730;48.870;12.542;2023-12-20T09:22:53;4.05;;;2.15;;
1475;SDS011;730;48.870;12.542;2023-12-20T09:25:19;2.22;;;1.98;;
1475;SDS011;730;48.870;12.542;2023-12-20T09:27:45;2.53;;;1.70;;
1475;SDS011;730;48.870;12.542;2023-12-20T09:30:11;3.75;;;2.33;;
1475;SDS011;730;48.870;12.542;2023-12-20T09:32:38;1.90;;;1.67;;
1475;SDS011;730;48.870;12.542;2023-12-20T09:35:04;2.72;;;1.70;;
1475;SDS011;730;48.870;12.542;2023-12-20T09:37:31;2.00;;;1.80;;
1475;SDS011;730;48.870;12.542;2023-12-20T09:39:57;1.88;;;1.52;;
1475;SDS011;730;48.870;12.542;2023-12-20T09:42:25;1.65;;;1.30;;
1475;SDS011;730;48.870;12.542;2023-12-20T09:45:15;2.00;;;1.55;;
1475;SDS011;730;48.870;12.542;2023-12-20T09:47:44;2.67;;;1.60;;
1475;SDS011;730;48.870;12.542;2023-12-20T09:50:11;2.70;;;1.88;;
1475;SDS011;730;48.870;12.542;2023-12-20T09:52:38;1.60;;;1.33;;
1475;SDS011;730;48.870;12.542;2023-12-20T09:55:05;2.00;;;1.55;;
1475;SDS011;730;48.870;12.542;2023-12-20T09:57:33;1.58;;;1.48;;
1475;SDS011;730;48.870;12.542;2023-12-20T09:59:59;2.33;;;1.70;;
1475;SDS011;730;48.870;12.542;2023-12-20T10:02:25;2.50;;;2.08;;
1475;SDS011;730;48.870;12.542;2023-12-20T10:04:54;1.70;;;1.60;;
1475;SDS011;730;48.870;12.542;2023-12-20T10:07:20;1.90;;;1.70;;
1475;SDS011;730;48.870;12.542;2023-12-20T10:09:47;2.72;;;2.45;;
1475;SDS011;730;48.870;12.542;2023-12-20T10:12:14;2.40;;;2.20;;
1475;SDS011;730;48.870;12.542;2023-12-20T10:14:40;2.25;;;1.90;;
1475;SDS011;730;48.870;12.542;2023-12-20T10:17:06;1.67;;;1.50;;
1475;SDS011;730;48.870;12.542;2023-12-20T10:19:32;2.75;;;2.00;;
1475;SDS011;730;48.870;12.542;2023-12-20T10:21:59;2.53;;;2.03;;
1475;SDS011;730;48.870;12.542;2023-12-20T10:24:25;2.47;;;2.28;;
1475;SDS011;730;48.870;12.542;2023-12-20T10:27:01;2.75;;;2.47;;
1475;SDS011;730;48.870;12.542;2023-12-20T10:29:32;2.30;;;1.73;;
1475;SDS011;730;48.870;12.542;2023-12-20T10:31:59;2.20;;;1.70;;
1475;SDS011;730;48.870;12.542;2023-12-20T10:34:25;4.57;;;2.40;;
1475;SDS011;730;48.870;12.542;2023-12-20T10:36:51;1.90;;;1.60;;
1475;SDS011;730;48.870;12.542;2023-12-20T10:39:17;2.60;;;2.10;;
1475;SDS011;730;48.870;12.542;2023-12-20T10:41:45;2.20;;;2.00;;
1475;SDS011;730;48.870;12.542;2023-12-20T10:44:12;2.15;;;1.95;;
1475;SDS011;730;48.870;12.542;2023-12-20T10:46:39;1.80;;;1.70;;
1475;SDS011;730;48.870;12.542;2023-12-20T10:49:06;2.33;;;1.90;;
1475;SDS011;730;48.870;12.542;2023-12-20T10:51:33;2.42;;;1.90;;
1475;SDS011;730;48.870;12.542;2023-12-20T10:54:01;2.70;;;2.50;;
1475;SDS011;730;48.870;12.542;2023-12-20T10:56:29;3.03;;;2.70;;
1475;SDS011;730;48.870;12.542;2023-12-20T10:58:58;3.15;;;2.55;;
1475;SDS011;730;48.870;12.542;2023-12-20T11:01:29;1.92;;;1.75;;
1475;SDS011;730;48.870;12.542;2023-12-20T11:03:57;2.03;;;1.83;;
1475;SDS011;730;48.870;12.542;2023-12-20T11:06:29;1.70;;;1.60;;
1475;SDS011;730;48.870;12.542;2023-12-20T11:09:10;2.30;;;2.10;;
1475;SDS011;730;48.870;12.542;2023-12-20T11:12:05;2.00;;;1.42;;
1475;SDS011;730;48.870;12.542;2023-12-20T11:14:42;2.08;;;1.50;;
1475;SDS011;730;48.870;12.542;2023-12-20T11:17:12;2.00;;;1.57;;
1475;SDS011;730;48.870;12.542;2023-12-20T11:22:25;1.98;;;1.58;;
1475;SDS011;730;48.870;12.542;2023-12-20T11:24:53;2.92;;;1.92;;
1475;SDS011;730;48.870;12.542;2023-12-20T11:27:21;2.10;;;1.70;;
1475;SDS011;730;48.870;12.542;2023-12-20T11:29:51;1.77;;;1.50;;
1475;SDS011;730;48.870;12.542;2023-12-20T11:34:57;1.30;;;1.10;;
1475;SDS011;730;48.870;12.542;2023-12-20T11:37:31;1.20;;;1.10;;
1475;SDS011;730;48.870;12.542;2023-12-20T11:40:01;2.65;;;1.02;;
1475;SDS011;730;48.870;12.542;2023-12-20T11:42:39;1.52;;;1.08;;
1475;SDS011;730;48.870;12.542;2023-12-20T11:45:24;1.40;;;1.30;;
1475;SDS011;730;48.870;12.542;2023-12-20T11:47:51;1.70;;;1.20;;
1475;SDS011;730;48.870;12.542;2023-12-20T11:50:20;1.80;;;1.20;;
1475;SDS011;730;48.870;12.542;2023-12-20T11:52:48;1.83;;;1.60;;
1475;SDS011;730;48.870;12.542;2023-12-20T11:55:14;1.90;;;1.00;;
1475;SDS011;730;48.870;12.542;2023-12-20T11:57:41;4.87;;;3.57;;
1475;SDS011;730;48.870;12.542;2023-12-20T12:00:08;1.63;;;1.20;;
1475;SDS011;730;48.870;12.542;2023-12-20T12:02:35;1.30;;;1.10;;
1475;SDS011;730;48.870;12.542;2023-12-20T12:05:01;2.65;;;1.15;;
1475;SDS011;730;48.870;12.542;2023-12-20T12:07:27;1.30;;;0.80;;
1475;SDS011;730;48.870;12.542;2023-12-20T12:09:53;1.60;;;1.40;;
1475;SDS011;730;48.870;12.542;2023-12-20T12:12:19;1.30;;;1.00;;
1475;SDS011;730;48.870;12.542;2023-12-20T12:14:46;1.83;;;1.30;;
1475;SDS011;730;48.870;12.542;2023-12-20T12:17:12;1.70;;;1.40;;
1475;SDS011;730;48.870;12.542;2023-12-20T12:19:43;1.80;;;1.30;;
1475;SDS011;730;48.870;12.542;2023-12-20T12:22:12;1.83;;;1.27;;
1475;SDS011;730;48.870;12.542;2023-12-20T12:24:41;1.93;;;1.30;;
1475;SDS011;730;48.870;12.542;2023-12-20T12:27:11;3.53;;;1.20;;
1475;SDS011;730;48.870;12.542;2023-12-20T12:29:38;2.50;;;1.30;;
1475;SDS011;730;48.870;12.542;2023-12-20T12:32:06;1.20;;;1.03;;
1475;SDS011;730;48.870;12.542;2023-12-20T12:34:33;1.70;;;0.90;;
1475;SDS011;730;48.870;12.542;2023-12-20T12:37:00;1.97;;;1.07;;
1475;SDS011;730;48.870;12.542;2023-12-20T12:39:26;4.10;;;1.20;;
1475;SDS011;730;48.870;12.542;2023-12-20T12:41:53;1.70;;;1.00;;
1475;SDS011;730;48.870;12.542;2023-12-20T12:44:19;1.40;;;1.20;;
1475;SDS011;730;48.870;12.542;2023-12-20T12:46:45;3.33;;;1.47;;
1475;SDS011;730;48.870;12.542;2023-12-20T12:49:12;4.27;;;1.00;;
1475;SDS011;730;48.870;12.542;2023-12-20T12:51:39;1.80;;;1.07;;
1475;SDS011;730;48.870;12.542;2023-12-20T12:54:05;2.03;;;0.70;;
1475;SDS011;730;48.870;12.542;2023-12-20T12:56:31;2.13;;;1.13;;
1475;SDS011;730;48.870;12.542;2023-12-20T12:58:57;2.50;;;1.57;;
1475;SDS011;730;48.870;12.542;2023-12-20T13:01:24;2.67;;;1.33;;
1475;SDS011;730;48.870;12.542;2023-12-20T13:03:50;1.67;;;0.90;;
1475;SDS011;730;48.870;12.542;2023-12-20T13:06:16;2.20;;;0.97;;
1475;SDS011;730;48.870;12.542;2023-12-20T13:08:43;1.47;;;1.13;;
1475;SDS011;730;48.870;12.542;2023-12-20T13:11:09;1.77;;;1.13;;
1475;SDS011;730;48.870;12.542;2023-12-20T13:13:35;1.57;;;1.20;;
1475;SDS011;730;48.870;12.542;2023-12-20T13:16:02;2.28;;;1.30;;
1475;SDS011;730;48.870;12.542;2023-12-20T13:18:28;2.03;;;0.93;;
1475;SDS011;730;48.870;12.542;2023-12-20T13:20:54;2.60;;;0.90;;
1475;SDS011;730;48.870;12.542;2023-12-20T13:23:20;1.77;;;1.10;;
1475;SDS011;730;48.870;12.542;2023-12-20T13:25:46;3.10;;;1.00;;
1475;SDS011;730;48.870;12.542;2023-12-20T13:28:12;2.47;;;1.10;;
1475;SDS011;730;48.870;12.542;2023-12-20T13:30:38;1.67;;;1.07;;
1475;SDS011;730;48.870;12.542;2023-12-20T13:33:05;1.30;;;1.00;;
1475;SDS011;730;48.870;12.542;2023-12-20T13:35:31;1.30;;;1.10;;
1475;SDS011;730;48.870;12.542;2023-12-20T13:37:58;1.50;;;0.93;;
1475;SDS011;730;48.870;12.542;2023-12-20T13:40:25;2.17;;;1.10;;
1475;SDS011;730;48.870;12.542;2023-12-20T13:42:51;1.70;;;0.90;;
1475;SDS011;730;48.870;12.542;2023-12-20T13:45:17;1.37;;;0.90;;
1475;SDS011;730;48.870;12.542;2023-12-20T13:47:44;1.60;;;0.80;;
1475;SDS011;730;48.870;12.542;2023-12-20T13:50:11;2.30;;;1.00;;
1475;SDS011;730;48.870;12.542;2023-12-20T13:52:38;1.20;;;0.80;;
1475;SDS011;730;48.870;12.542;2023-12-20T13:55:04;1.80;;;0.93;;
1475;SDS011;730;48.870;12.542;2023-12-20T13:57:33;2.33;;;1.10;;
1475;SDS011;730;48.870;12.542;2023-12-20T13:59:59;1.92;;;0.85;;
1475;SDS011;730;48.870;12.542;2023-12-20T14:02:26;1.23;;;0.63;;
1475;SDS011;730;48.870;12.542;2023-12-20T14:04:52;3.10;;;1.00;;
1475;SDS011;730;48.870;12.542;2023-12-20T14:07:18;1.50;;;0.93;;
1475;SDS011;730;48.870;12.542;2023-12-20T14:09:44;3.33;;;1.83;;
1475;SDS011;730;48.870;12.542;2023-12-20T14:12:11;5.50;;;1.90;;
1475;SDS011;730;48.870;12.542;2023-12-20T14:14:37;2.03;;;0.80;;
1475;SDS011;730;48.870;12.542;2023-12-20T14:17:03;1.40;;;1.08;;
1475;SDS011;730;48.870;12.542;2023-12-20T14:19:32;2.25;;;1.50;;
1475;SDS011;730;48.870;12.542;2023-12-20T14:21:58;2.40;;;1.17;;
1475;SDS011;730;48.870;12.542;2023-12-20T14:24:27;3.42;;;1.30;;
1475;SDS011;730;48.870;12.542;2023-12-20T14:26:53;3.58;;;1.85;;
1475;SDS011;730;48.870;12.542;2023-12-20T14:29:20;6.18;;;2.85;;
1475;SDS011;730;48.870;12.542;2023-12-20T14:31:46;3.92;;;2.13;;
1475;SDS011;730;48.870;12.542;2023-12-20T14:34:15;2.30;;;2.00;;
1475;SDS011;730;48.870;12.542;2023-12-20T14:36:41;4.32;;;1.15;;
1475;SDS011;730;48.870;12.542;2023-12-20T14:39:07;2.08;;;0.88;;
1475;SDS011;730;48.870;12.542;2023-12-20T14:41:37;2.30;;;1.00;;
1475;SDS011;730;48.870;12.542;2023-12-20T14:44:03;1.35;;;1.00;;
1475;SDS011;730;48.870;12.542;2023-12-20T14:46:30;2.33;;;1.50;;
1475;SDS011;730;48.870;12.542;2023-12-20T14:48:56;2.65;;;1.35;;
1475;SDS011;730;48.870;12.542;2023-12-20T14:51:22;1.55;;;1.20;;
1475;SDS011;730;48.870;12.542;2023-12-20T14:53:48;1.17;;;0.90;;
1475;SDS011;730;48.870;12.542;2023-12-20T14:56:14;3.95;;;1.30;;
1475;SDS011;730;48.870;12.542;2023-12-20T14:58:41;2.50;;;0.90;;
1475;SDS011;730;48.870;12.542;2023-12-20T15:01:07;3.05;;;1.77;;
1475;SDS011;730;48.870;12.542;2023-12-20T15:03:34;3.70;;;1.97;;
1475;SDS011;730;48.870;12.542;2023-12-20T15:06:00;2.65;;;1.80;;
1475;SDS011;730;48.870;12.542;2023-12-20T15:08:26;2.00;;;1.08;;
1475;SDS011;730;48.870;12.542;2023-12-20T15:10:52;1.55;;;1.00;;